Divide, Montana
Current Conditions -  °F | °C
As of 9:53 PM on Sunday 19 Oct 2014 (Local Time) from KBTM Reporting Station
Clear Clear  
Wind Chill: 40°   Ceiling: Unl
Heat Index: 40°   Visibility: 10mi
Dew Point: 29°   Wind: 3mph
Humidity: 65%   Direction: 160°SSE
Pressure: 30.04"   Gusts: NA
Location:  45.75°N, 112.74°W
Report Text: KBTM 200353Z AUTO 16003KT 10SM CLR 04/M02 A3004 RMK AO2 SLP176 T00441017
Loading
Personal Weather Stations






























Interactive Weather Map
Tropical Storm Tracking
New forecast layout! Learn more

10-Day Weather Forecast

Advertisements
Track Severe Weather on mobile